createdAt,value
2022-10-07T00:00:55.841Z,67.30
2022-10-07T00:03:25.801Z,67.70
2022-10-07T00:06:04.546Z,67.50
2022-10-07T00:08:32.586Z,66.70
2022-10-07T00:11:04.985Z,66.70
2022-10-07T00:13:32.960Z,68.00
2022-10-07T00:16:07.146Z,68.30
2022-10-07T00:18:35.450Z,68.10
2022-10-07T00:21:04.619Z,67.10
2022-10-07T00:23:32.113Z,67.70
2022-10-07T00:26:05.252Z,68.30
2022-10-07T00:28:33.652Z,68.30
2022-10-07T00:31:03.100Z,68.50
2022-10-07T00:33:35.975Z,68.40
2022-10-07T00:36:07.025Z,67.70
2022-10-07T00:38:34.356Z,68.20
2022-10-07T00:41:03.832Z,67.70
2022-10-07T00:43:32.027Z,68.10
2022-10-07T00:46:05.045Z,68.20
2022-10-07T00:48:36.460Z,68.40
2022-10-07T00:51:04.108Z,68.50
2022-10-07T00:53:36.793Z,68.70
2022-10-07T00:56:07.581Z,68.60
2022-10-07T00:58:38.020Z,68.60
2022-10-07T01:01:07.569Z,68.60
2022-10-07T01:03:37.353Z,68.50
2022-10-07T01:06:05.603Z,68.70
2022-10-07T01:08:33.822Z,68.90
2022-10-07T01:11:15.375Z,69.10
2022-10-07T01:13:56.920Z,68.70
2022-10-07T01:16:32.823Z,68.00
2022-10-07T01:19:13.523Z,68.80
2022-10-07T01:21:46.109Z,68.10
2022-10-07T01:24:26.167Z,68.20
2022-10-07T01:27:01.251Z,68.90
2022-10-07T01:29:36.817Z,68.90
2022-10-07T01:32:10.070Z,68.30
2022-10-07T01:34:38.973Z,68.20
2022-10-07T01:37:09.931Z,68.20
2022-10-07T01:39:42.256Z,67.60
2022-10-07T01:42:11.812Z,67.40
2022-10-07T01:44:40.142Z,67.30
2022-10-07T01:47:07.545Z,67.50
2022-10-07T01:49:34.934Z,67.70
2022-10-07T01:52:27.979Z,69.00
2022-10-07T01:55:13.095Z,69.20
2022-10-07T01:57:52.831Z,69.20
2022-10-07T02:00:22.661Z,69.40
2022-10-07T02:03:07.007Z,69.60
2022-10-07T02:05:46.788Z,69.70
2022-10-07T02:08:27.928Z,69.60
2022-10-07T02:11:07.794Z,69.80
2022-10-07T02:13:41.860Z,69.90
2022-10-07T02:16:19.480Z,70.30
2022-10-07T02:18:50.361Z,69.30
2022-10-07T02:21:22.066Z,69.60
2022-10-07T02:23:49.976Z,70.00
2022-10-07T02:26:21.143Z,69.60
2022-10-07T02:28:52.426Z,69.20
2022-10-07T02:31:24.717Z,68.90
2022-10-07T02:33:54.367Z,70.00
2022-10-07T02:36:27.872Z,70.20
2022-10-07T02:38:56.311Z,70.30
2022-10-07T02:41:35.352Z,70.40
2022-10-07T02:44:26.804Z,71.00
2022-10-07T02:47:01.028Z,70.70
2022-10-07T02:49:29.938Z,70.70
2022-10-07T02:52:00.224Z,71.00
2022-10-07T02:54:34.721Z,70.10
2022-10-07T02:57:03.379Z,70.90
2022-10-07T02:59:33.130Z,71.00
2022-10-07T03:02:03.879Z,70.80
2022-10-07T03:04:32.152Z,70.90
2022-10-07T03:07:01.220Z,69.80
2022-10-07T03:09:30.674Z,69.70
2022-10-07T03:11:58.289Z,69.40
2022-10-07T03:14:25.679Z,70.70
2022-10-07T03:16:54.529Z,70.80
2022-10-07T03:19:27.051Z,71.00
2022-10-07T03:21:57.260Z,71.20
2022-10-07T03:24:25.235Z,71.40
2022-10-07T03:26:53.445Z,70.90
2022-10-07T03:29:20.969Z,71.40
2022-10-07T03:31:49.238Z,71.30
2022-10-07T03:34:18.260Z,71.30
2022-10-07T03:36:48.175Z,71.40
2022-10-07T03:39:16.810Z,70.70
2022-10-07T03:41:45.595Z,71.10
2022-10-07T03:44:14.570Z,71.50
2022-10-07T03:46:42.116Z,71.50
2022-10-07T03:49:09.959Z,71.40
2022-10-07T03:51:40.021Z,71.40
2022-10-07T03:54:09.604Z,71.30
2022-10-07T03:56:37.721Z,71.00
2022-10-07T03:59:05.233Z,71.20
2022-10-07T04:01:32.867Z,71.30
2022-10-07T04:04:01.737Z,71.60
2022-10-07T04:06:33.846Z,71.60
2022-10-07T04:09:06.344Z,70.90
2022-10-07T04:11:35.034Z,70.60
2022-10-07T04:14:02.689Z,71.00
2022-10-07T04:16:33.694Z,71.60
2022-10-07T04:19:06.032Z,71.50
2022-10-07T04:21:34.088Z,70.80
2022-10-07T04:24:01.711Z,71.70
2022-10-07T04:26:30.493Z,71.70
2022-10-07T04:29:00.128Z,71.50
2022-10-07T04:31:28.168Z,71.60
2022-10-07T04:34:00.393Z,72.10
2022-10-07T04:36:34.830Z,71.70
2022-10-07T04:39:05.708Z,71.60
2022-10-07T04:41:38.999Z,71.50
2022-10-07T04:44:11.927Z,71.90
2022-10-07T04:46:49.045Z,72.00
2022-10-07T04:49:18.129Z,72.10
2022-10-07T04:54:31.963Z,72.10
2022-10-07T04:57:03.186Z,71.90
2022-10-07T04:59:32.586Z,72.00
2022-10-07T05:02:02.067Z,72.00
2022-10-07T05:04:30.850Z,72.00
2022-10-07T05:06:59.443Z,72.30
2022-10-07T05:09:27.181Z,72.20
2022-10-07T05:11:58.094Z,71.60
2022-10-07T05:14:26.849Z,71.60
2022-10-07T05:16:56.708Z,71.00
2022-10-07T05:19:28.230Z,71.00
2022-10-07T05:21:56.768Z,71.50
2022-10-07T05:24:26.244Z,71.40
2022-10-07T05:26:54.568Z,71.50
2022-10-07T05:29:22.938Z,72.00
2022-10-07T05:31:54.181Z,71.90
2022-10-07T05:34:25.575Z,71.60
2022-10-07T05:36:54.729Z,72.30
2022-10-07T05:39:23.053Z,72.00
2022-10-07T05:41:55.421Z,72.50
2022-10-07T05:44:27.547Z,72.60
2022-10-07T05:46:59.060Z,72.70
2022-10-07T05:49:27.884Z,72.80
2022-10-07T05:51:56.827Z,72.60
2022-10-07T05:54:24.721Z,72.90
2022-10-07T05:56:53.977Z,72.90
2022-10-07T05:59:25.737Z,73.20
2022-10-07T06:01:57.481Z,73.40
2022-10-07T06:04:27.507Z,73.40
2022-10-07T06:06:54.953Z,73.40
2022-10-07T06:09:41.085Z,73.40
2022-10-07T06:12:33.278Z,73.50
2022-10-07T06:15:05.391Z,73.70
2022-10-07T06:17:33.889Z,73.60
2022-10-07T06:20:08.964Z,73.60
2022-10-07T06:22:36.439Z,73.80
2022-10-07T06:25:04.589Z,73.80
2022-10-07T06:27:33.263Z,73.70
2022-10-07T06:30:00.823Z,73.60
2022-10-07T06:32:29.717Z,73.80
2022-10-07T06:34:57.450Z,73.70
2022-10-07T06:37:30.656Z,73.60
2022-10-07T06:40:01.172Z,73.60
2022-10-07T06:42:31.667Z,73.10
2022-10-07T06:45:20.599Z,73.20
2022-10-07T06:47:53.007Z,73.50
2022-10-07T06:50:21.561Z,72.90
2022-10-07T06:52:50.497Z,72.70
2022-10-07T06:55:18.333Z,72.40
2022-10-07T06:57:46.556Z,72.30
2022-10-07T07:00:17.526Z,72.10
2022-10-07T07:02:45.882Z,71.90
2022-10-07T07:05:17.992Z,71.30
2022-10-07T07:07:47.321Z,71.20
2022-10-07T07:10:17.835Z,71.00
2022-10-07T07:12:48.850Z,70.40
2022-10-07T07:15:17.362Z,70.50
2022-10-07T07:17:45.472Z,70.10
2022-10-07T07:20:13.395Z,69.60
2022-10-07T07:22:41.838Z,69.20
2022-10-07T07:25:10.369Z,68.60
2022-10-07T07:27:40.148Z,68.50
2022-10-07T07:30:11.248Z,67.70
2022-10-07T07:32:39.583Z,67.60
2022-10-07T07:35:07.734Z,66.70
2022-10-07T07:37:36.053Z,66.40
2022-10-07T07:40:03.779Z,66.00
2022-10-07T07:42:33.553Z,65.50
2022-10-07T07:45:02.301Z,64.70
2022-10-07T07:47:30.264Z,64.30
2022-10-07T07:49:57.605Z,63.20
2022-10-07T07:52:29.918Z,63.60
2022-10-07T07:54:59.866Z,62.50
2022-10-07T07:57:28.418Z,62.10
2022-10-07T07:59:58.372Z,61.90
2022-10-07T08:02:29.036Z,60.90
2022-10-07T08:05:01.094Z,60.70
2022-10-07T08:07:28.874Z,59.30
2022-10-07T08:09:56.896Z,59.50
2022-10-07T08:12:24.579Z,59.40
2022-10-07T08:14:53.883Z,58.40
2022-10-07T08:17:23.467Z,58.60
2022-10-07T08:19:54.551Z,57.10
2022-10-07T08:22:22.056Z,55.90
2022-10-07T08:24:51.535Z,56.10
2022-10-07T08:27:21.305Z,56.80
2022-10-07T08:29:49.555Z,54.90
2022-10-07T08:32:17.039Z,54.20
2022-10-07T08:34:44.499Z,53.90
2022-10-07T08:37:13.237Z,54.40
2022-10-07T08:39:40.604Z,53.60
2022-10-07T08:42:15.118Z,53.70
2022-10-07T08:44:47.883Z,52.10
2022-10-07T08:47:22.761Z,51.50
2022-10-07T08:50:02.262Z,50.10
2022-10-07T08:52:40.873Z,50.50
2022-10-07T08:55:18.655Z,49.00
2022-10-07T08:58:04.112Z,48.30
2022-10-07T09:00:40.878Z,48.00
2022-10-07T09:03:24.960Z,47.40
2022-10-07T09:05:55.638Z,46.60
2022-10-07T09:08:30.089Z,47.20
2022-10-07T09:11:15.580Z,46.90
2022-10-07T09:13:48.037Z,45.40
2022-10-07T09:16:21.348Z,46.00
2022-10-07T09:18:53.469Z,45.30
2022-10-07T09:21:23.620Z,43.70
2022-10-07T09:23:56.672Z,43.90
2022-10-07T09:26:26.475Z,43.20
2022-10-07T09:28:53.998Z,44.40
2022-10-07T09:31:23.155Z,43.80
2022-10-07T09:33:52.958Z,42.30
2022-10-07T09:36:20.528Z,42.80
2022-10-07T09:38:50.261Z,43.00
2022-10-07T09:41:22.936Z,41.10
2022-10-07T09:44:06.003Z,40.60
2022-10-07T09:46:44.361Z,41.10
2022-10-07T09:49:46.280Z,40.70
2022-10-07T09:52:19.300Z,38.40
2022-10-07T09:54:48.583Z,41.00
2022-10-07T09:57:33.895Z,39.90
2022-10-07T10:00:24.214Z,40.30
2022-10-07T10:02:55.020Z,39.20
2022-10-07T10:05:26.806Z,39.50
2022-10-07T10:07:59.912Z,39.50
2022-10-07T10:10:29.816Z,38.90
2022-10-07T10:13:01.156Z,38.30
2022-10-07T10:15:40.516Z,37.90
2022-10-07T10:18:33.654Z,36.90
2022-10-07T10:21:20.646Z,39.00
2022-10-07T10:23:49.955Z,38.40
2022-10-07T10:26:34.351Z,37.20
2022-10-07T10:29:31.365Z,36.60
2022-10-07T10:32:34.208Z,37.30
2022-10-07T10:35:06.672Z,37.70
2022-10-07T10:37:50.324Z,37.50
2022-10-07T10:40:23.257Z,36.60
2022-10-07T10:42:57.766Z,37.20
2022-10-07T10:45:35.140Z,34.80
2022-10-07T10:48:21.671Z,34.80
2022-10-07T10:50:56.085Z,36.50
2022-10-07T10:53:35.586Z,36.10
2022-10-07T10:56:20.938Z,37.10
2022-10-07T10:59:03.301Z,36.30
2022-10-07T11:01:36.676Z,36.50
2022-10-07T11:04:29.955Z,36.50
2022-10-07T11:07:02.374Z,36.60
2022-10-07T11:09:36.855Z,35.60
2022-10-07T11:12:21.164Z,34.80
2022-10-07T11:14:55.735Z,36.60
2022-10-07T11:17:31.581Z,36.80
2022-10-07T11:20:11.796Z,36.90
2022-10-07T11:22:45.154Z,37.30
2022-10-07T11:25:23.995Z,37.70
2022-10-07T11:27:54.333Z,38.90
2022-10-07T11:30:23.548Z,37.40
2022-10-07T11:32:58.911Z,38.10
2022-10-07T11:35:29.513Z,37.90
2022-10-07T11:38:03.158Z,39.90
2022-10-07T11:40:34.623Z,39.00
2022-10-07T11:43:09.028Z,38.40
2022-10-07T11:45:42.415Z,37.80
2022-10-07T11:48:16.728Z,39.00
2022-10-07T11:50:52.080Z,38.40
2022-10-07T11:53:23.071Z,37.50
2022-10-07T11:55:58.350Z,39.40
2022-10-07T11:58:27.384Z,39.80
2022-10-07T12:01:31.275Z,38.70
2022-10-07T12:04:22.802Z,39.40
2022-10-07T12:07:23.461Z,37.00
2022-10-07T12:09:55.676Z,36.40
2022-10-07T12:12:23.737Z,37.10
2022-10-07T12:15:02.178Z,36.80
2022-10-07T12:17:30.357Z,36.80
2022-10-07T12:20:45.501Z,36.90
2022-10-07T12:23:42.857Z,36.70
2022-10-07T12:26:50.358Z,36.30
2022-10-07T12:29:22.416Z,38.20
2022-10-07T12:31:50.420Z,37.80
2022-10-07T12:34:33.539Z,37.80
2022-10-07T12:37:38.528Z,38.00
2022-10-07T12:40:16.729Z,38.90
2022-10-07T12:42:51.923Z,39.00
2022-10-07T12:45:21.833Z,39.90
2022-10-07T12:47:52.412Z,39.90
2022-10-07T12:50:21.165Z,39.00
2022-10-07T12:52:52.960Z,37.20
2022-10-07T12:55:29.524Z,38.50
2022-10-07T12:58:17.059Z,39.30
2022-10-07T13:01:03.040Z,38.40
2022-10-07T13:04:01.089Z,37.90
2022-10-07T13:07:05.150Z,38.30
2022-10-07T13:09:59.498Z,38.30
2022-10-07T13:12:46.704Z,38.80
2022-10-07T13:15:29.147Z,38.50
2022-10-07T13:18:03.801Z,37.90
2022-10-07T13:20:41.864Z,39.20
2022-10-07T13:23:15.388Z,36.50
2022-10-07T13:25:49.438Z,36.40
2022-10-07T13:28:22.323Z,37.20
2022-10-07T13:30:51.193Z,37.30
2022-10-07T13:33:25.292Z,37.50
2022-10-07T13:36:06.822Z,36.50
2022-10-07T13:38:35.073Z,35.70
2022-10-07T13:41:07.730Z,35.40
2022-10-07T13:43:37.511Z,34.30
2022-10-07T13:46:09.247Z,35.40
2022-10-07T13:48:45.416Z,34.90
2022-10-07T13:51:24.412Z,34.40
2022-10-07T13:53:54.873Z,33.90
2022-10-07T13:56:25.267Z,35.10
2022-10-07T13:58:55.584Z,33.70
2022-10-07T14:01:26.860Z,34.50
2022-10-07T14:04:02.354Z,32.60
2022-10-07T14:06:38.227Z,31.90
2022-10-07T14:09:17.155Z,32.20
2022-10-07T14:11:46.598Z,32.80
2022-10-07T14:14:21.629Z,31.50
2022-10-07T14:16:56.911Z,32.30
2022-10-07T14:19:24.773Z,32.90
2022-10-07T14:21:52.381Z,33.90
2022-10-07T14:24:20.638Z,32.30
2022-10-07T14:26:48.092Z,32.70
2022-10-07T14:29:32.281Z,32.90
2022-10-07T14:32:28.462Z,31.90
2022-10-07T14:35:14.368Z,31.40
2022-10-07T14:37:41.821Z,34.70
2022-10-07T14:40:18.069Z,34.30
2022-10-07T14:42:45.788Z,33.20
2022-10-07T14:45:18.231Z,33.30
2022-10-07T14:47:45.858Z,33.70
2022-10-07T14:50:13.556Z,33.40
2022-10-07T14:52:45.236Z,33.40
2022-10-07T14:55:16.929Z,34.10
2022-10-07T14:57:45.153Z,35.50
2022-10-07T15:00:15.049Z,34.80
2022-10-07T15:02:44.531Z,34.70
2022-10-07T15:05:13.087Z,35.90
2022-10-07T15:07:40.590Z,35.80
2022-10-07T15:10:14.557Z,35.70
2022-10-07T15:12:44.417Z,36.60
2022-10-07T15:15:12.933Z,35.90
2022-10-07T15:17:41.926Z,37.30
2022-10-07T15:20:13.912Z,37.10
2022-10-07T15:22:41.833Z,37.70
2022-10-07T15:25:10.868Z,37.70
2022-10-07T15:27:38.326Z,37.70
2022-10-07T15:30:07.247Z,38.00
2022-10-07T15:32:34.884Z,38.50
2022-10-07T15:35:02.441Z,38.70
2022-10-07T15:37:32.335Z,38.80
2022-10-07T15:39:59.789Z,38.70
2022-10-07T15:42:27.144Z,39.60
2022-10-07T15:44:54.630Z,39.70
2022-10-07T15:47:22.125Z,40.30
2022-10-07T15:49:49.595Z,40.30
2022-10-07T15:52:17.043Z,39.80
2022-10-07T15:54:46.555Z,40.50
2022-10-07T15:57:14.403Z,40.90
2022-10-07T15:59:42.282Z,41.20
2022-10-07T16:02:14.883Z,40.80
2022-10-07T16:04:42.915Z,41.70
2022-10-07T16:07:12.056Z,41.80
2022-10-07T16:09:39.488Z,41.20
2022-10-07T16:12:08.916Z,41.60
2022-10-07T16:14:36.273Z,43.00
2022-10-07T16:17:04.233Z,43.20
2022-10-07T16:19:31.576Z,43.20
2022-10-07T16:21:58.998Z,43.70
2022-10-07T16:24:27.534Z,44.20
2022-10-07T16:26:57.248Z,44.40
2022-10-07T16:29:44.756Z,44.40
2022-10-07T16:32:12.182Z,44.60
2022-10-07T16:34:43.581Z,44.60
2022-10-07T16:37:11.649Z,45.40
2022-10-07T16:39:39.090Z,45.90
2022-10-07T16:42:06.807Z,45.80
2022-10-07T16:44:35.871Z,46.20
2022-10-07T16:47:03.337Z,46.60
2022-10-07T16:49:30.729Z,46.80
2022-10-07T16:51:58.657Z,47.00
2022-10-07T16:54:26.148Z,47.20
2022-10-07T16:56:53.694Z,47.70
2022-10-07T16:59:23.690Z,47.80
2022-10-07T17:01:55.596Z,48.30
2022-10-07T17:04:24.497Z,48.20
2022-10-07T17:06:52.559Z,48.50
2022-10-07T17:09:21.746Z,48.80
2022-10-07T17:11:49.376Z,48.80
2022-10-07T17:14:18.261Z,49.00
2022-10-07T17:16:47.488Z,49.10
2022-10-07T17:19:18.794Z,49.20
2022-10-07T17:21:47.749Z,49.50
2022-10-07T17:24:16.050Z,49.80
2022-10-07T17:26:43.530Z,50.30
2022-10-07T17:29:12.605Z,50.50
2022-10-07T17:31:43.221Z,50.60
2022-10-07T17:34:11.968Z,51.30
2022-10-07T17:36:40.686Z,51.40
2022-10-07T17:39:08.422Z,51.30
2022-10-07T17:41:37.395Z,51.70
2022-10-07T17:44:10.274Z,51.70
2022-10-07T17:46:39.384Z,51.70
2022-10-07T17:49:08.572Z,51.80
2022-10-07T17:51:37.623Z,52.70
2022-10-07T17:54:06.837Z,52.70
2022-10-07T17:56:34.803Z,52.80
2022-10-07T17:59:02.611Z,52.60
2022-10-07T18:01:32.818Z,53.00
2022-10-07T18:04:01.456Z,53.50
2022-10-07T18:06:33.647Z,53.40
2022-10-07T18:09:03.176Z,53.60
2022-10-07T18:11:51.139Z,53.20
2022-10-07T18:14:37.039Z,53.50
2022-10-07T18:17:05.175Z,54.10
2022-10-07T18:19:32.527Z,54.50
2022-10-07T18:21:59.984Z,54.00
2022-10-07T18:24:28.704Z,54.30
2022-10-07T18:26:59.337Z,54.50
2022-10-07T18:29:27.112Z,54.60
2022-10-07T18:31:54.598Z,55.60
2022-10-07T18:34:22.331Z,55.50
2022-10-07T18:36:52.689Z,54.90
2022-10-07T18:39:23.464Z,55.40
2022-10-07T18:41:50.832Z,55.20
2022-10-07T18:44:19.553Z,55.80
2022-10-07T18:46:48.446Z,55.50
2022-10-07T18:49:16.738Z,55.90
2022-10-07T18:51:46.620Z,56.00
2022-10-07T18:54:14.176Z,56.70
2022-10-07T18:56:41.865Z,56.60
2022-10-07T18:59:10.002Z,56.90
2022-10-07T19:01:39.430Z,57.00
2022-10-07T19:04:08.465Z,56.90
2022-10-07T19:06:37.663Z,57.00
2022-10-07T19:09:07.216Z,57.20
2022-10-07T19:11:34.748Z,57.20
2022-10-07T19:14:02.275Z,57.40
2022-10-07T19:16:35.039Z,57.20
2022-10-07T19:19:05.355Z,56.80
2022-10-07T19:21:34.358Z,58.10
2022-10-07T19:24:02.768Z,57.90
2022-10-07T19:26:32.625Z,58.20
2022-10-07T19:29:00.464Z,58.40
2022-10-07T19:31:30.004Z,58.40
2022-10-07T19:34:02.433Z,58.50
2022-10-07T19:36:33.172Z,58.60
2022-10-07T19:39:01.324Z,58.80
2022-10-07T19:41:30.583Z,58.80
2022-10-07T19:43:58.631Z,59.00
2022-10-07T19:46:30.156Z,59.10
2022-10-07T19:48:59.274Z,59.10
2022-10-07T19:51:28.504Z,58.90
2022-10-07T19:53:58.407Z,59.10
2022-10-07T19:56:28.142Z,58.80
2022-10-07T19:58:56.897Z,58.60
2022-10-07T20:01:26.211Z,58.60
2022-10-07T20:03:57.595Z,58.30
2022-10-07T20:06:25.514Z,58.60
2022-10-07T20:08:54.021Z,59.00
2022-10-07T20:11:23.763Z,59.90
2022-10-07T20:13:54.228Z,60.10
2022-10-07T20:16:24.324Z,60.00
2022-10-07T20:18:58.490Z,60.10
2022-10-07T20:21:25.848Z,60.00
2022-10-07T20:23:54.702Z,60.30
2022-10-07T20:26:25.726Z,60.70
2022-10-07T20:28:54.749Z,60.50
2022-10-07T20:31:24.632Z,60.90
2022-10-07T20:33:53.972Z,60.10
2022-10-07T20:36:23.546Z,60.30
2022-10-07T20:39:12.753Z,61.40
2022-10-07T20:42:07.987Z,60.80
2022-10-07T20:44:36.662Z,61.40
2022-10-07T20:47:04.428Z,61.60
2022-10-07T20:49:32.881Z,61.80
2022-10-07T20:52:02.117Z,61.80
2022-10-07T20:54:30.954Z,61.90
2022-10-07T20:57:00.176Z,61.90
2022-10-07T20:59:28.824Z,61.40
2022-10-07T21:01:56.589Z,61.80
2022-10-07T21:04:27.093Z,62.10
2022-10-07T21:06:55.694Z,61.80
2022-10-07T21:09:23.985Z,60.90
2022-10-07T21:11:51.558Z,61.80
2022-10-07T21:14:20.634Z,62.50
2022-10-07T21:16:48.344Z,61.50
2022-10-07T21:19:17.046Z,62.80
2022-10-07T21:21:44.538Z,62.90
2022-10-07T21:24:11.902Z,62.70
2022-10-07T21:26:39.249Z,62.70
2022-10-07T21:29:09.527Z,62.90
2022-10-07T21:31:38.220Z,63.10
2022-10-07T21:34:07.866Z,62.70
2022-10-07T21:36:37.341Z,62.80
2022-10-07T21:39:05.095Z,63.40
2022-10-07T21:41:34.845Z,63.30
2022-10-07T21:44:04.256Z,63.70
2022-10-07T21:46:32.925Z,63.80
2022-10-07T21:49:01.905Z,63.50
2022-10-07T21:51:32.407Z,63.20
2022-10-07T21:54:00.351Z,64.00
2022-10-07T21:56:29.885Z,63.80
2022-10-07T21:58:59.789Z,64.40
2022-10-07T22:01:27.644Z,64.20
2022-10-07T22:03:56.471Z,63.60
2022-10-07T22:06:45.012Z,64.50
2022-10-07T22:09:14.595Z,64.20
2022-10-07T22:11:42.071Z,64.60
2022-10-07T22:14:12.799Z,65.00
2022-10-07T22:16:41.238Z,64.80
2022-10-07T22:19:08.661Z,65.20
2022-10-07T22:21:40.163Z,65.40
2022-10-07T22:24:09.044Z,65.10
2022-10-07T22:26:39.077Z,65.50
2022-10-07T22:29:08.859Z,65.10
2022-10-07T22:31:36.644Z,65.40
2022-10-07T22:34:04.669Z,65.50
2022-10-07T22:36:32.405Z,65.40
2022-10-07T22:39:01.495Z,65.30
2022-10-07T22:41:29.537Z,65.20
2022-10-07T22:43:58.984Z,65.80
2022-10-07T22:46:27.933Z,64.90
2022-10-07T22:48:57.994Z,64.90
2022-10-07T22:51:29.531Z,65.90
2022-10-07T22:53:57.258Z,66.20
2022-10-07T22:56:28.272Z,66.40
2022-10-07T22:58:58.866Z,66.20
2022-10-07T23:01:31.260Z,65.50
2022-10-07T23:04:00.892Z,65.30
2022-10-07T23:06:29.537Z,65.80
2022-10-07T23:08:57.020Z,65.10
2022-10-07T23:11:27.401Z,65.70
2022-10-07T23:13:55.384Z,65.60
2022-10-07T23:16:25.068Z,66.30
2022-10-07T23:18:53.652Z,65.70
2022-10-07T23:21:23.049Z,66.50
2022-10-07T23:23:53.118Z,66.30
2022-10-07T23:26:23.074Z,65.80
2022-10-07T23:28:52.983Z,66.40
2022-10-07T23:31:22.524Z,65.50
2022-10-07T23:33:52.134Z,66.20
2022-10-07T23:36:21.640Z,65.40
2022-10-07T23:38:50.007Z,66.10
2022-10-07T23:41:20.079Z,66.10
2022-10-07T23:43:49.168Z,66.80
2022-10-07T23:46:21.245Z,65.80
2022-10-07T23:48:49.461Z,66.00
2022-10-07T23:51:18.991Z,66.90
2022-10-07T23:53:47.016Z,66.90
2022-10-07T23:56:14.692Z,66.80
2022-10-07T23:58:42.322Z,66.90
